Acushnet, Massachusetts
Current Conditions -  °F | °C
As of 5:53 AM on Thursday 23 Oct 2014 (Local Time) from KEWB Reporting Station
Overcast Overcast  
Wind Chill: 57°   Ceiling: 600
Heat Index: 57°   Visibility: 10mi
Dew Point: 56°   Wind: 9mph
Humidity: 96%   Direction: 20°NNE
Pressure: 29.55"   Gusts: 31mph
Location:  41.68°N, 70.91°W
Report Text: KEWB 230953Z AUTO 02008G27KT 10SM OVC006 14/13 A2955 RMK AO2 PK WND 02027/0947 RAE11B24E53 CIG 004V008 SLP005 P0000 T01390133
Loading
Personal Weather Stations






























Interactive Weather Map
Tropical Storm Tracking
New forecast layout! Learn more

10-Day Weather Forecast

Advertisements
Track Severe Weather on mobile